Death Valley, California
Current Conditions -  °F | °C
As of 1:52 AM on Sunday 26 Oct 2014 (Local Time) from KDRA Reporting Station
Clear Clear  
Wind Chill: 69°   Ceiling: Unl
Heat Index: 69°   Visibility: 10mi
Dew Point: 30°   Wind: 15mph
Humidity: 23%   Direction: 170°S
Pressure: 29.96"   Gusts: 22mph
Location:  36.46°N, 116.87°W
Report Text: KDRA 260852Z AUTO 17013G19KT 10SM CLR 21/M01 A2996 RMK AO2 SLP101 T02061011 58005
Loading
Personal Weather Stations






























Interactive Weather Map
Tropical Storm Tracking
New forecast layout! Learn more

10-Day Weather Forecast

Advertisements
Track Severe Weather on mobile